Aérodrome :
LOGIN :

S'inscrire | Disclaimer

   EN    FR    IT 

 










Légende :    VFR   VFR Marginal   IFR   IFR Intensif   IFR Très Intensif
Visi : 
Plafond : 
>= 8 km
>= 3000ft
5 à 8 km
1000 à 3000 ft
1500m à 5 km
500 à 1000 ft
800 à 1500m
200 à 500 ft
< 800m
< 200 ft
Symboles :   Orages  Brouillard  Fortes neiges  Fortes précipitations  Vent > 20 kt
SIGMETs :   Divers  Orages  Givrage  Turbulence  Onde Orograph.  Cendres Volcan.






- Altitude de l'aérodrome : 20 ft
- Code IATA : TIV


LYTV - Tivat - Montenegro

DERNIER METAR :
  • 151900Z VRB01KT CAVOK 14/14 Q1017

METARs EXPIRÉS :
  • 151830Z VRB01KT CAVOK 15/15 Q1017
  • 151800Z VRB01KT CAVOK 16/16 Q1017 NOSIG
  • 151730Z VRB02KT CAVOK 16/16 Q1017 NOSIG
  • 151700Z 08002KT CAVOK 17/17 Q1017 NOSIG
  • 151630Z 00000KT CAVOK 18/17 Q1016 NOSIG

TAF TAF LYTV
Valide du 15 à 18h jusqu'au 16 à 18h UTC


151700Z 1518/1618 32004KT CAVOK TX25/1613Z TN10/1603Z
PROB30
TEMPO 1603/1607 2000 BR



MET'MAP, la Météo Aéronautique d'un coup d'oeil ! - Copyright ORBIFLY Décembre 2007 - Disclaimer

ORBIFLY MET'MAP TEAM :

Programmation & Développement : Alexandra Zaïnal
Conception & Développement : Baudouin d'Aumeries
Co-Programmation & Développement : Marc-Olivier Méhu
Soutien technique & logistique : Manuel Goepfert

Contact : metmap@orbifly.com




SOURCES & CREDITS :

   NOAA